Time;durP1;ratioP1;P1;durP2;ratioP2;P2;SDS_P1;SDS_P2;PMS_P1;PMS_P2;Temp;Humidity;BMP_temperature;BMP_pressure;BME280_temperature;BME280_humidity;BME280_pressure;Samples;Min_cycle;Max_cycle;Signal;HPM_P1;HPM_P2
2023/03/14 00:01:14;;;;;;;6.15;1.60;;;;;;;;;;5088456;28;20039;-71
2023/03/14 00:03:45;;;;;;;1.48;1.27;;;;;;;;;;5100386;28;20051;-72
2023/03/14 00:06:19;;;;;;;2.35;1.40;;;;;;;;;;5102174;28;20048;-75
2023/03/14 00:08:51;;;;;;;2.83;1.42;;;;;;;;;;5103338;28;20047;-76
2023/03/14 00:11:28;;;;;;;6.15;1.58;;;;;;;;;;5106262;28;20533;-76
2023/03/14 00:14:02;;;;;;;5.28;1.45;;;;;;;;;;5106001;28;20872;-73
2023/03/14 00:16:34;;;;;;;5.47;1.35;;;;;;;;;;5107017;28;20050;-76
2023/03/14 00:19:08;;;;;;;1.60;1.20;;;;;;;;;;5106480;28;20051;-73
2023/03/14 00:21:41;;;;;;;2.08;1.27;;;;;;;;;;5106276;28;20047;-75
2023/03/14 00:24:12;;;;;;;4.47;1.35;;;;;;;;;;5106727;28;20043;-73
2023/03/14 00:26:47;;;;;;;1.33;1.23;;;;;;;;;;5106620;28;20055;-71
2023/03/14 00:29:38;;;;;;;5.32;1.60;;;;;;;;;;5104681;28;20810;-73
2023/03/14 00:32:12;;;;;;;2.35;1.17;;;;;;;;;;5109343;28;20055;-72
2023/03/14 00:34:44;;;;;;;1.92;1.50;;;;;;;;;;5110332;28;20052;-74
2023/03/14 00:37:16;;;;;;;3.83;1.55;;;;;;;;;;5109135;28;20075;-76
2023/03/14 00:39:49;;;;;;;6.45;1.67;;;;;;;;;;5095796;28;20050;-77
2023/03/14 00:42:22;;;;;;;4.97;1.60;;;;;;;;;;5094290;28;20403;-76
2023/03/14 00:44:54;;;;;;;5.80;1.90;;;;;;;;;;5086637;28;20044;-76
2023/03/14 00:47:28;;;;;;;7.45;2.08;;;;;;;;;;5098556;28;20056;-74
2023/03/14 00:50:01;;;;;;;3.58;1.70;;;;;;;;;;5089200;28;20054;-71
2023/03/14 00:52:33;;;;;;;5.68;2.22;;;;;;;;;;5099354;28;20064;-74
2023/03/14 00:55:06;;;;;;;4.65;1.88;;;;;;;;;;5092344;28;20040;-73
2023/03/14 00:57:38;;;;;;;18.52;2.65;;;;;;;;;;5099120;28;20048;-72
2023/03/14 01:00:12;;;;;;;5.82;2.13;;;;;;;;;;5098303;28;20062;-76
2023/03/14 01:02:46;;;;;;;3.70;1.63;;;;;;;;;;5086991;28;20079;-73
2023/03/14 01:05:19;;;;;;;4.28;1.67;;;;;;;;;;5098051;28;20113;-73
2023/03/14 01:07:51;;;;;;;3.28;1.50;;;;;;;;;;5090316;28;20059;-75
2023/03/14 01:10:23;;;;;;;1.75;1.00;;;;;;;;;;5089231;28;20048;-75
2023/03/14 01:12:55;;;;;;;2.22;1.00;;;;;;;;;;5088902;28;20044;-75
2023/03/14 01:15:26;;;;;;;1.20;0.95;;;;;;;;;;5088866;28;20039;-76
2023/03/14 01:17:59;;;;;;;2.10;1.30;;;;;;;;;;5088820;28;20050;-74
2023/03/14 01:20:32;;;;;;;3.90;1.40;;;;;;;;;;5089594;28;20040;-73
2023/03/14 01:23:03;;;;;;;2.33;1.17;;;;;;;;;;5087776;28;20067;-73
2023/03/14 01:25:34;;;;;;;4.30;1.33;;;;;;;;;;5087547;28;20052;-75
2023/03/14 01:28:05;;;;;;;3.13;1.20;;;;;;;;;;5086318;28;20059;-73
2023/03/14 01:30:36;;;;;;;2.88;1.25;;;;;;;;;;5086609;28;20047;-74
2023/03/14 01:33:07;;;;;;;5.97;1.27;;;;;;;;;;5097847;28;20051;-74
2023/03/14 01:35:38;;;;;;;3.20;1.30;;;;;;;;;;5087033;28;20845;-74
2023/03/14 01:38:09;;;;;;;3.25;1.30;;;;;;;;;;5087788;28;20506;-73
2023/03/14 01:40:44;;;;;;;1.52;1.20;;;;;;;;;;5099112;28;20047;-74
2023/03/14 01:43:20;;;;;;;2.15;1.25;;;;;;;;;;5085652;28;20051;-74
2023/03/14 01:46:06;;;;;;;2.58;1.33;;;;;;;;;;5087904;28;20048;-73
2023/03/14 01:48:59;;;;;;;3.72;1.20;;;;;;;;;;5088588;28;20068;-74
2023/03/14 01:52:08;;;;;;;2.42;1.30;;;;;;;;;;5087913;28;20067;-74
2023/03/14 01:54:42;;;;;;;4.70;1.50;;;;;;;;;;5081055;28;20048;-74
2023/03/14 01:57:43;;;;;;;1.85;1.20;;;;;;;;;;5085889;28;20529;-75
2023/03/14 02:00:18;;;;;;;3.08;1.42;;;;;;;;;;5088441;28;20054;-74
2023/03/14 02:03:09;;;;;;;3.05;1.40;;;;;;;;;;5088160;28;20051;-74
2023/03/14 02:05:42;;;;;;;3.70;1.63;;;;;;;;;;5096823;28;20107;-74
2023/03/14 02:08:24;;;;;;;4.22;1.73;;;;;;;;;;5088733;28;20501;-73
2023/03/14 02:10:59;;;;;;;3.65;1.42;;;;;;;;;;5088622;28;20072;-74
2023/03/14 02:13:46;;;;;;;11.27;1.80;;;;;;;;;;5086112;28;20055;-74
2023/03/14 02:16:22;;;;;;;2.58;1.55;;;;;;;;;;5087892;28;20064;-75
2023/03/14 02:19:13;;;;;;;5.75;1.88;;;;;;;;;;5091459;28;20498;-75
2023/03/14 02:22:11;;;;;;;2.70;1.45;;;;;;;;;;5086701;28;20052;-74
2023/03/14 02:25:05;;;;;;;3.60;1.50;;;;;;;;;;5085310;28;20404;-75
2023/03/14 02:27:37;;;;;;;6.82;1.50;;;;;;;;;;5085922;28;20511;-75
2023/03/14 02:30:26;;;;;;;3.05;1.48;;;;;;;;;;5085687;28;20063;-75
2023/03/14 02:33:17;;;;;;;5.55;1.60;;;;;;;;;;5085861;28;20396;-75
2023/03/14 02:36:01;;;;;;;3.30;1.30;;;;;;;;;;5087364;28;20418;-73
2023/03/14 02:38:39;;;;;;;1.80;1.10;;;;;;;;;;5084859;28;20067;-75
2023/03/14 02:41:10;;;;;;;6.15;1.58;;;;;;;;;;5069412;28;20047;-74
2023/03/14 02:43:46;;;;;;;9.32;1.50;;;;;;;;;;5086141;28;20056;-74
2023/03/14 02:46:19;;;;;;;3.47;1.67;;;;;;;;;;5087600;28;20044;-76
2023/03/14 02:48:58;;;;;;;6.85;1.70;;;;;;;;;;5085441;28;20515;-76
2023/03/14 02:51:29;;;;;;;2.75;1.15;;;;;;;;;;5087520;28;20604;-73
2023/03/14 02:53:58;;;;;;;5.35;1.50;;;;;;;;;;5084557;28;20430;-74
2023/03/14 02:56:29;;;;;;;6.70;1.50;;;;;;;;;;5085348;28;20047;-74
2023/03/14 02:59:06;;;;;;;2.92;1.30;;;;;;;;;;5085042;28;20051;-74
2023/03/14 03:01:45;;;;;;;4.90;2.00;;;;;;;;;;5085317;28;20059;-75
2023/03/14 03:04:15;;;;;;;4.75;1.90;;;;;;;;;;5085642;28;20055;-73
2023/03/14 03:06:47;;;;;;;5.10;1.38;;;;;;;;;;5069083;28;20110;-75
2023/03/14 03:09:18;;;;;;;5.90;1.83;;;;;;;;;;5085677;28;20083;-75
2023/03/14 03:11:49;;;;;;;3.15;1.83;;;;;;;;;;5085469;28;20056;-75
2023/03/14 03:14:23;;;;;;;4.72;1.73;;;;;;;;;;5084700;28;20056;-74
2023/03/14 03:16:57;;;;;;;5.75;1.40;;;;;;;;;;5085226;28;20059;-74
2023/03/14 03:19:27;;;;;;;2.97;1.42;;;;;;;;;;5086904;28;20032;-74
2023/03/14 03:21:58;;;;;;;2.83;1.38;;;;;;;;;;5086714;28;20048;-74
2023/03/14 03:24:28;;;;;;;2.15;1.60;;;;;;;;;;5086572;28;20040;-74
2023/03/14 03:26:58;;;;;;;4.25;1.40;;;;;;;;;;5086193;28;20421;-75
2023/03/14 03:29:29;;;;;;;2.63;1.63;;;;;;;;;;5085667;28;20541;-74
2023/03/14 03:32:00;;;;;;;2.58;1.65;;;;;;;;;;5085392;28;20410;-74
2023/03/14 03:34:30;;;;;;;3.08;1.60;;;;;;;;;;5084486;28;20044;-73
2023/03/14 03:37:00;;;;;;;3.38;1.65;;;;;;;;;;5084785;28;20529;-74
2023/03/14 03:39:36;;;;;;;5.18;1.77;;;;;;;;;;5085312;28;20063;-74
2023/03/14 03:42:07;;;;;;;3.65;1.52;;;;;;;;;;5086045;28;20060;-74
2023/03/14 03:44:38;;;;;;;3.58;1.55;;;;;;;;;;5086986;28;20506;-74
2023/03/14 03:47:10;;;;;;;3.25;1.75;;;;;;;;;;5084790;28;20506;-75
2023/03/14 03:49:40;;;;;;;4.75;2.08;;;;;;;;;;5086198;28;20110;-74
2023/03/14 03:52:12;;;;;;;2.85;1.77;;;;;;;;;;5084691;28;20532;-75
2023/03/14 03:54:43;;;;;;;3.95;2.03;;;;;;;;;;5086998;28;20406;-74
2023/03/14 03:57:14;;;;;;;2.92;1.80;;;;;;;;;;5084954;28;20421;-75
2023/03/14 03:59:44;;;;;;;3.83;2.17;;;;;;;;;;5084668;28;20056;-74
2023/03/14 04:02:15;;;;;;;4.22;2.00;;;;;;;;;;5086705;28;20040;-75
2023/03/14 04:04:46;;;;;;;3.95;2.20;;;;;;;;;;5085633;28;20067;-74
2023/03/14 04:07:16;;;;;;;4.32;2.00;;;;;;;;;;5088933;28;20059;-75
2023/03/14 04:09:48;;;;;;;5.05;2.17;;;;;;;;;;5088598;28;20052;-74
2023/03/14 04:12:25;;;;;;;4.47;1.98;;;;;;;;;;5088375;28;20052;-75
2023/03/14 04:15:10;;;;;;;12.23;2.85;;;;;;;;;;5088862;28;20048;-74
2023/03/14 04:17:46;;;;;;;7.53;2.45;;;;;;;;;;5088571;28;20048;-74
2023/03/14 04:20:17;;;;;;;7.60;2.20;;;;;;;;;;5089028;28;20507;-75
2023/03/14 04:22:47;;;;;;;4.97;2.45;;;;;;;;;;5090297;28;20076;-75
2023/03/14 04:25:19;;;;;;;5.60;2.45;;;;;;;;;;5088027;28;20052;-75
2023/03/14 04:27:55;;;;;;;6.15;2.40;;;;;;;;;;5088426;28;21005;-76
2023/03/14 04:30:30;;;;;;;5.30;2.25;;;;;;;;;;5087771;28;20059;-75
2023/03/14 04:33:10;;;;;;;3.45;2.28;;;;;;;;;;5087974;28;20051;-76
2023/03/14 04:35:47;;;;;;;4.97;2.50;;;;;;;;;;5087472;28;20063;-74
2023/03/14 04:38:18;;;;;;;3.95;2.25;;;;;;;;;;5088695;28;20063;-75
2023/03/14 04:40:49;;;;;;;4.00;2.53;;;;;;;;;;5087854;28;20059;-75
2023/03/14 04:43:21;;;;;;;4.47;2.22;;;;;;;;;;5088165;28;20059;-74
2023/03/14 04:45:58;;;;;;;4.70;2.80;;;;;;;;;;5088022;28;20044;-74
2023/03/14 04:48:30;;;;;;;7.45;2.63;;;;;;;;;;5089848;28;20048;-74
2023/03/14 04:51:00;;;;;;;7.53;2.88;;;;;;;;;;5088019;28;20541;-75
2023/03/14 04:53:34;;;;;;;6.55;3.00;;;;;;;;;;5087513;28;20051;-73
2023/03/14 04:56:08;;;;;;;7.90;2.92;;;;;;;;;;5087253;28;20047;-75
2023/03/14 04:58:41;;;;;;;5.55;3.25;;;;;;;;;;5071063;28;20062;-74
2023/03/14 05:01:11;;;;;;;5.03;3.22;;;;;;;;;;5087589;28;20052;-73
2023/03/14 05:03:52;;;;;;;8.82;3.28;;;;;;;;;;5089507;28;20526;-74
2023/03/14 05:06:49;;;;;;;6.38;3.30;;;;;;;;;;5086607;28;20060;-75
2023/03/14 05:09:29;;;;;;;5.13;2.97;;;;;;;;;;5087695;28;20443;-74
2023/03/14 05:12:21;;;;;;;4.97;3.00;;;;;;;;;;5074890;28;20056;-75
2023/03/14 05:15:09;;;;;;;5.63;3.50;;;;;;;;;;5089893;28;20056;-74
2023/03/14 05:18:06;;;;;;;4.18;2.90;;;;;;;;;;5086575;28;20059;-74
2023/03/14 05:20:55;;;;;;;6.15;3.45;;;;;;;;;;5091490;28;20056;-72
2023/03/14 05:23:44;;;;;;;4.53;3.22;;;;;;;;;;5072485;28;20044;-73
2023/03/14 05:26:35;;;;;;;4.38;3.45;;;;;;;;;;5087846;28;20083;-75
2023/03/14 05:29:25;;;;;;;9.77;3.65;;;;;;;;;;5077911;28;20490;-74
2023/03/14 05:32:07;;;;;;;6.93;3.00;;;;;;;;;;5073211;28;20044;-74
2023/03/14 05:34:59;;;;;;;9.23;3.60;;;;;;;;;;5092300;28;20056;-73
2023/03/14 05:37:45;;;;;;;8.95;3.40;;;;;;;;;;5086822;28;20098;-75
2023/03/14 05:40:41;;;;;;;4.60;3.40;;;;;;;;;;5086274;28;20411;-73
2023/03/14 05:43:22;;;;;;;4.75;3.38;;;;;;;;;;5088612;28;20044;-75
2023/03/14 05:46:21;;;;;;;6.25;3.63;;;;;;;;;;5050990;28;20064;-74
2023/03/14 05:49:21;;;;;;;4.90;3.50;;;;;;;;;;5050566;28;20057;-73
2023/03/14 05:52:11;;;;;;;8.98;3.72;;;;;;;;;;5077027;28;20056;-75
2023/03/14 05:54:49;;;;;;;15.18;3.88;;;;;;;;;;5086185;28;20051;-75
2023/03/14 05:57:48;;;;;;;5.07;3.30;;;;;;;;;;5033288;28;20062;-75
2023/03/14 06:00:48;;;;;;;6.93;4.00;;;;;;;;;;5074895;28;20060;-75
2023/03/14 06:03:34;;;;;;;6.50;3.95;;;;;;;;;;5086359;28;20055;-74
2023/03/14 06:06:06;;;;;;;8.68;4.07;;;;;;;;;;5086079;28;20055;-73
2023/03/14 06:08:36;;;;;;;7.25;4.18;;;;;;;;;;5086285;28;20048;-74
2023/03/14 06:11:07;;;;;;;9.00;4.03;;;;;;;;;;5085851;28;20430;-73
2023/03/14 06:13:39;;;;;;;8.68;3.80;;;;;;;;;;5087168;28;20391;-74
2023/03/14 06:16:10;;;;;;;7.50;3.65;;;;;;;;;;5086102;28;20534;-74
2023/03/14 06:18:40;;;;;;;5.47;3.38;;;;;;;;;;5086415;28;20049;-75
2023/03/14 06:21:11;;;;;;;6.93;4.05;;;;;;;;;;5085907;28;20424;-74
2023/03/14 06:23:42;;;;;;;7.07;3.63;;;;;;;;;;5085598;28;20055;-75
2023/03/14 06:26:12;;;;;;;6.25;3.65;;;;;;;;;;5085756;28;20047;-75
2023/03/14 06:28:42;;;;;;;5.53;3.85;;;;;;;;;;5085043;28;20048;-75
2023/03/14 06:31:12;;;;;;;6.22;3.90;;;;;;;;;;5085647;28;20067;-72
2023/03/14 06:33:52;;;;;;;8.07;3.60;;;;;;;;;;5088041;28;20063;-74
2023/03/14 06:36:26;;;;;;;5.90;3.40;;;;;;;;;;5085435;28;20426;-73
2023/03/14 06:38:59;;;;;;;5.55;3.72;;;;;;;;;;5085328;28;20056;-74
2023/03/14 06:41:32;;;;;;;6.15;3.60;;;;;;;;;;5085874;28;20056;-74
2023/03/14 06:44:03;;;;;;;4.93;3.70;;;;;;;;;;5086328;28;20419;-74
2023/03/14 06:46:34;;;;;;;7.97;4.07;;;;;;;;;;5085391;28;20079;-75
2023/03/14 06:49:06;;;;;;;5.85;3.30;;;;;;;;;;5085229;28;20048;-73
2023/03/14 06:51:37;;;;;;;5.93;3.78;;;;;;;;;;5085224;28;20066;-74
2023/03/14 06:54:09;;;;;;;8.38;3.90;;;;;;;;;;5085537;28;20093;-74
2023/03/14 06:56:40;;;;;;;7.82;3.85;;;;;;;;;;5085100;28;20044;-75
2023/03/14 06:59:11;;;;;;;4.30;3.33;;;;;;;;;;5085484;28;20048;-74
2023/03/14 07:01:42;;;;;;;6.40;3.45;;;;;;;;;;5085143;28;20410;-74
2023/03/14 07:04:12;;;;;;;6.55;3.53;;;;;;;;;;5086909;28;20048;-74
2023/03/14 07:06:47;;;;;;;5.97;3.58;;;;;;;;;;5085857;28;20059;-75
2023/03/14 07:09:18;;;;;;;5.80;3.75;;;;;;;;;;5085194;28;20055;-74
2023/03/14 07:11:57;;;;;;;6.30;3.53;;;;;;;;;;5085202;28;20063;-75
2023/03/14 07:14:28;;;;;;;6.32;3.47;;;;;;;;;;5085135;28;20052;-73
2023/03/14 07:16:59;;;;;;;7.35;3.53;;;;;;;;;;5087148;28;20052;-74
2023/03/14 07:19:30;;;;;;;11.32;3.58;;;;;;;;;;5085044;28;20063;-74
2023/03/14 07:22:00;;;;;;;5.32;3.28;;;;;;;;;;5084694;28;20071;-73
2023/03/14 07:24:30;;;;;;;7.93;3.63;;;;;;;;;;5087063;28;20052;-74
2023/03/14 07:27:01;;;;;;;5.43;3.45;;;;;;;;;;5085496;28;20048;-74
2023/03/14 07:29:31;;;;;;;6.78;3.42;;;;;;;;;;5085177;28;20518;-73
2023/03/14 07:32:04;;;;;;;4.45;3.05;;;;;;;;;;5086103;28;20059;-74
2023/03/14 07:34:35;;;;;;;4.90;3.42;;;;;;;;;;5086323;28;20044;-75
2023/03/14 07:37:05;;;;;;;6.60;3.35;;;;;;;;;;5086000;28;20055;-75
2023/03/14 07:39:37;;;;;;;5.95;3.72;;;;;;;;;;5084577;28;20051;-74
2023/03/14 07:42:13;;;;;;;7.65;3.30;;;;;;;;;;5084513;28;20125;-72
2023/03/14 07:45:11;;;;;;;5.60;3.25;;;;;;;;;;5069794;28;20056;-73
2023/03/14 07:47:41;;;;;;;6.43;3.20;;;;;;;;;;5086561;28;20048;-74
2023/03/14 07:50:12;;;;;;;6.60;3.33;;;;;;;;;;5086595;28;20499;-74
2023/03/14 07:52:44;;;;;;;9.07;3.47;;;;;;;;;;5086794;28;20047;-73
2023/03/14 07:55:14;;;;;;;7.05;3.03;;;;;;;;;;5087150;28;20055;-74
2023/03/14 07:57:44;;;;;;;5.43;3.15;;;;;;;;;;5085212;28;20059;-73
2023/03/14 08:00:15;;;;;;;5.50;3.20;;;;;;;;;;5086704;28;20044;-72
2023/03/14 08:02:46;;;;;;;6.40;3.00;;;;;;;;;;5085897;28;20047;-73
2023/03/14 08:05:16;;;;;;;5.10;3.20;;;;;;;;;;5086056;28;20055;-75
2023/03/14 08:07:46;;;;;;;7.13;3.45;;;;;;;;;;5086140;28;20044;-74
2023/03/14 08:10:23;;;;;;;5.38;3.25;;;;;;;;;;5086311;28;20048;-74
2023/03/14 08:12:59;;;;;;;6.38;3.22;;;;;;;;;;5086300;28;20086;-72
2023/03/14 08:15:30;;;;;;;7.18;2.80;;;;;;;;;;5085940;28;20059;-73
2023/03/14 08:18:01;;;;;;;5.97;3.72;;;;;;;;;;5085078;28;20090;-73
2023/03/14 08:20:32;;;;;;;11.45;3.13;;;;;;;;;;5086347;28;20052;-73
2023/03/14 08:23:02;;;;;;;4.90;3.25;;;;;;;;;;5086857;28;20052;-73
2023/03/14 08:25:32;;;;;;;6.05;3.40;;;;;;;;;;5086900;28;20406;-72
2023/03/14 08:28:04;;;;;;;9.00;3.50;;;;;;;;;;5086477;28;20051;-73
2023/03/14 08:30:34;;;;;;;4.85;3.17;;;;;;;;;;5085808;28;20040;-74
2023/03/14 08:33:04;;;;;;;9.52;3.70;;;;;;;;;;5086417;28;20517;-75
2023/03/14 08:35:35;;;;;;;6.10;3.40;;;;;;;;;;5086013;28;20040;-74
2023/03/14 08:38:09;;;;;;;6.25;3.38;;;;;;;;;;5086122;28;20541;-75
2023/03/14 08:40:39;;;;;;;5.10;3.40;;;;;;;;;;5084561;28;20208;-74
2023/03/14 08:43:09;;;;;;;6.35;3.70;;;;;;;;;;5085286;28;20066;-74
2023/03/14 08:45:39;;;;;;;8.82;3.30;;;;;;;;;;5084462;28;20118;-75
2023/03/14 08:48:10;;;;;;;6.10;3.63;;;;;;;;;;5086513;28;20048;-75
2023/03/14 08:50:41;;;;;;;7.80;3.65;;;;;;;;;;5085719;28;20048;-74
2023/03/14 08:53:11;;;;;;;5.78;3.70;;;;;;;;;;5088221;28;20051;-74
2023/03/14 08:55:43;;;;;;;4.45;3.17;;;;;;;;;;5089628;28;20056;-74
2023/03/14 08:58:14;;;;;;;5.47;3.53;;;;;;;;;;5089273;28;20036;-73
2023/03/14 09:00:44;;;;;;;7.50;3.50;;;;;;;;;;5089681;28;20048;-74
2023/03/14 09:03:14;;;;;;;7.07;3.58;;;;;;;;;;5089680;28;20547;-74
2023/03/14 09:05:46;;;;;;;6.32;3.63;;;;;;;;;;5089633;28;20048;-74
2023/03/14 09:08:20;;;;;;;6.20;3.60;;;;;;;;;;5089758;28;20059;-75
2023/03/14 09:10:50;;;;;;;8.52;4.15;;;;;;;;;;5089040;28;20056;-74
2023/03/14 09:13:20;;;;;;;7.25;3.50;;;;;;;;;;5089472;28;20055;-74
2023/03/14 09:15:54;;;;;;;8.57;3.53;;;;;;;;;;5089717;28;20052;-75
2023/03/14 09:18:26;;;;;;;5.95;4.05;;;;;;;;;;5089411;28;20047;-75
2023/03/14 09:20:57;;;;;;;5.13;3.47;;;;;;;;;;5088965;28;20052;-75
2023/03/14 09:23:28;;;;;;;6.35;3.78;;;;;;;;;;5088935;28;20051;-74
2023/03/14 09:25:59;;;;;;;9.68;3.60;;;;;;;;;;5088860;28;20417;-75
2023/03/14 09:28:30;;;;;;;5.90;3.88;;;;;;;;;;5089070;28;20051;-75
2023/03/14 09:31:10;;;;;;;9.32;3.70;;;;;;;;;;5088875;28;20044;-74
2023/03/14 09:33:40;;;;;;;6.40;3.80;;;;;;;;;;5088612;28;20534;-74
2023/03/14 09:36:11;;;;;;;7.45;3.75;;;;;;;;;;5088934;28;20063;-74
2023/03/14 09:38:42;;;;;;;5.35;3.58;;;;;;;;;;5089048;28;20048;-75
2023/03/14 09:41:18;;;;;;;6.40;3.83;;;;;;;;;;5086911;28;20510;-74
2023/03/14 09:43:53;;;;;;;12.13;4.55;;;;;;;;;;5088281;28;20063;-74
2023/03/14 09:46:24;;;;;;;10.75;5.95;;;;;;;;;;5088403;28;20044;-75
2023/03/14 09:49:00;;;;;;;8.65;4.05;;;;;;;;;;5088881;28;20499;-74
2023/03/14 09:51:32;;;;;;;10.43;4.05;;;;;;;;;;5088176;28;20059;-76
2023/03/14 09:54:10;;;;;;;8.15;4.00;;;;;;;;;;5088022;28;20048;-75
2023/03/14 09:56:40;;;;;;;6.60;3.50;;;;;;;;;;5087993;28;20059;-75
2023/03/14 09:59:14;;;;;;;11.02;5.78;;;;;;;;;;5089086;28;20047;-75
2023/03/14 10:01:45;;;;;;;5.60;3.05;;;;;;;;;;5088530;28;20044;-77
2023/03/14 10:04:22;;;;;;;9.13;3.67;;;;;;;;;;5088413;28;20051;-74
2023/03/14 10:06:54;;;;;;;8.13;3.33;;;;;;;;;;5086350;28;20510;-75
2023/03/14 10:09:25;;;;;;;6.68;3.10;;;;;;;;;;5088600;28;20474;-75
2023/03/14 10:11:59;;;;;;;5.75;3.83;;;;;;;;;;5087834;28;20048;-74
2023/03/14 10:14:45;;;;;;;8.85;3.45;;;;;;;;;;5087984;28;20040;-75
2023/03/14 10:17:16;;;;;;;9.23;3.53;;;;;;;;;;5086836;28;20043;-75
2023/03/14 10:19:56;;;;;;;6.20;3.67;;;;;;;;;;5094444;28;20039;-75
2023/03/14 10:22:33;;;;;;;6.78;3.45;;;;;;;;;;5108621;28;20047;-73
2023/03/14 10:25:07;;;;;;;6.88;3.13;;;;;;;;;;5108750;28;20409;-74
2023/03/14 10:27:38;;;;;;;8.55;3.40;;;;;;;;;;5107436;28;20039;-74
2023/03/14 10:30:43;;;;;;;11.77;3.40;;;;;;;;;;5108081;28;20048;-77
2023/03/14 10:33:32;;;;;;;7.47;3.60;;;;;;;;;;5107788;28;20048;-75
2023/03/14 10:36:07;;;;;;;7.75;3.28;;;;;;;;;;5107609;28;20040;-75
2023/03/14 10:38:40;;;;;;;16.67;4.07;;;;;;;;;;5107893;28;20501;-75
2023/03/14 10:41:26;;;;;;;9.43;4.07;;;;;;;;;;5107912;28;20476;-74
2023/03/14 10:44:00;;;;;;;8.60;3.97;;;;;;;;;;5107310;28;20046;-75
2023/03/14 10:46:33;;;;;;;7.15;3.83;;;;;;;;;;5107952;28;20042;-74
2023/03/14 10:49:35;;;;;;;10.15;4.32;;;;;;;;;;5107463;28;20043;-75
2023/03/14 10:52:30;;;;;;;16.20;4.70;;;;;;;;;;5108092;28;20043;-76
2023/03/14 10:55:23;;;;;;;16.25;3.78;;;;;;;;;;5108106;28;20150;-74
2023/03/14 10:57:55;;;;;;;36.97;5.38;;;;;;;;;;5106568;28;20540;-75
2023/03/14 11:00:26;;;;;;;24.42;3.95;;;;;;;;;;5106621;28;20054;-76
2023/03/14 11:03:17;;;;;;;18.98;3.38;;;;;;;;;;5104808;28;20047;-75
2023/03/14 11:06:10;;;;;;;18.50;3.33;;;;;;;;;;5107034;28;20047;-75
2023/03/14 11:08:56;;;;;;;17.15;3.17;;;;;;;;;;5106120;28;20043;-75
2023/03/14 11:11:30;;;;;;;17.35;3.20;;;;;;;;;;5106089;28;20051;-76
2023/03/14 11:14:25;;;;;;;18.13;3.53;;;;;;;;;;5107153;28;20048;-75
2023/03/14 11:17:11;;;;;;;9.13;2.67;;;;;;;;;;5106280;28;20044;-75
2023/03/14 11:19:54;;;;;;;8.90;2.33;;;;;;;;;;5106085;28;20048;-76
2023/03/14 11:22:34;;;;;;;6.97;2.47;;;;;;;;;;5106074;28;20070;-76
2023/03/14 11:25:31;;;;;;;9.90;2.13;;;;;;;;;;5106629;28;20048;-74
2023/03/14 11:28:38;;;;;;;7.15;2.20;;;;;;;;;;5106432;28;20063;-77
2023/03/14 11:31:24;;;;;;;5.55;2.00;;;;;;;;;;5081810;28;20545;-77
2023/03/14 11:34:10;;;;;;;12.20;1.70;;;;;;;;;;5088085;28;20055;-76
2023/03/14 11:37:07;;;;;;;6.68;2.85;;;;;;;;;;5088663;28;20052;-74
2023/03/14 11:39:50;;;;;;;10.77;2.58;;;;;;;;;;5090545;28;20521;-79
2023/03/14 11:42:21;;;;;;;4.80;2.05;;;;;;;;;;5091435;28;20044;-81
2023/03/14 11:44:55;;;;;;;9.20;2.28;;;;;;;;;;5088933;28;20052;-79
2023/03/14 11:47:33;;;;;;;16.52;4.60;;;;;;;;;;5091019;28;20059;-74
2023/03/14 11:50:15;;;;;;;9.15;2.55;;;;;;;;;;5090793;28;20044;-77
2023/03/14 11:52:58;;;;;;;7.40;2.55;;;;;;;;;;5086537;28;20056;-80
2023/03/14 11:55:38;;;;;;;9.57;2.35;;;;;;;;;;5086729;28;20055;-75
2023/03/14 11:58:26;;;;;;;9.15;2.47;;;;;;;;;;5089323;28;20047;-78
2023/03/14 12:01:03;;;;;;;11.23;2.08;;;;;;;;;;5089992;28;20036;-79
2023/03/14 12:03:46;;;;;;;8.43;2.28;;;;;;;;;;5086138;28;20048;-77
2023/03/14 12:06:25;;;;;;;5.80;1.95;;;;;;;;;;5086176;28;20514;-80
2023/03/14 12:08:59;;;;;;;6.10;2.10;;;;;;;;;;5089416;28;20048;-77
2023/03/14 12:11:58;;;;;;;7.45;2.75;;;;;;;;;;5090856;28;20047;-75
2023/03/14 12:14:32;;;;;;;6.28;2.20;;;;;;;;;;5090849;28;20044;-77
2023/03/14 12:17:38;;;;;;;4.70;2.20;;;;;;;;;;5089545;28;20059;-77
2023/03/14 12:20:21;;;;;;;5.00;2.20;;;;;;;;;;5087592;28;20495;-75
2023/03/14 12:22:56;;;;;;;5.05;2.10;;;;;;;;;;5092264;28;20059;-76
2023/03/14 12:25:28;;;;;;;6.10;2.33;;;;;;;;;;5090135;28;20415;-74
2023/03/14 12:28:18;;;;;;;5.13;1.85;;;;;;;;;;5088589;28;20060;-78
2023/03/14 12:30:50;;;;;;;5.70;2.08;;;;;;;;;;5092718;28;20054;-76
2023/03/14 12:33:28;;;;;;;3.97;1.90;;;;;;;;;;5095856;28;20048;-75
2023/03/14 12:36:01;;;;;;;8.88;2.40;;;;;;;;;;5093031;28;20055;-76
2023/03/14 12:38:44;;;;;;;24.15;2.97;;;;;;;;;;5092434;28;20060;-78
2023/03/14 12:41:29;;;;;;;7.45;1.70;;;;;;;;;;5092897;28;20386;-79
2023/03/14 12:44:28;;;;;;;10.75;1.60;;;;;;;;;;5092318;28;20044;-77
2023/03/14 12:47:00;;;;;;;7.60;1.70;;;;;;;;;;5096398;28;20040;-78
2023/03/14 12:49:38;;;;;;;4.60;0.98;;;;;;;;;;5095528;28;20056;-80
2023/03/14 12:52:37;;;;;;;5.25;1.38;;;;;;;;;;5089966;28;20425;-78
2023/03/14 12:55:18;;;;;;;2.60;1.10;;;;;;;;;;5091004;28;20418;-77
2023/03/14 12:58:39;;;;;;;2.17;1.20;;;;;;;;;;5090040;28;20855;-76
2023/03/14 13:01:19;;;;;;;5.05;1.65;;;;;;;;;;5046816;28;20056;-80
2023/03/14 13:03:50;;;;;;;2.30;1.10;;;;;;;;;;5050000;28;20049;-76
2023/03/14 13:06:53;;;;;;;6.07;1.88;;;;;;;;;;5076860;28;20044;-76
2023/03/14 13:09:33;;;;;;;2.88;1.30;;;;;;;;;;5090129;28;20036;-76
2023/03/14 13:12:14;;;;;;;1.35;1.02;;;;;;;;;;5093794;28;20406;-76
2023/03/14 13:14:49;;;;;;;6.07;1.60;;;;;;;;;;5089078;28;20056;-78
2023/03/14 13:17:32;;;;;;;3.53;0.90;;;;;;;;;;5088534;28;20071;-77
2023/03/14 13:20:35;;;;;;;4.18;1.10;;;;;;;;;;5087657;28;20047;-80
2023/03/14 13:23:19;;;;;;;2.72;1.10;;;;;;;;;;5089303;28;20044;-78
2023/03/14 13:25:49;;;;;;;2.95;1.02;;;;;;;;;;5089129;28;20043;-72
2023/03/14 13:28:21;;;;;;;3.05;1.08;;;;;;;;;;5090156;28;20051;-78
2023/03/14 13:30:57;;;;;;;0.90;0.73;;;;;;;;;;5091327;28;20063;-75
2023/03/14 13:33:29;;;;;;;3.88;0.70;;;;;;;;;;5087251;28;20553;-78
2023/03/14 13:36:05;;;;;;;2.03;0.90;;;;;;;;;;5089274;28;20494;-77
2023/03/14 13:38:36;;;;;;;2.30;1.10;;;;;;;;;;5090792;28;20525;-76
2023/03/14 13:41:08;;;;;;;1.13;0.73;;;;;;;;;;5092628;28;20048;-77
2023/03/14 13:43:43;;;;;;;3.08;1.20;;;;;;;;;;5089245;28;20047;-77
2023/03/14 13:46:17;;;;;;;1.45;0.80;;;;;;;;;;5088993;28;20048;-79
2023/03/14 13:48:57;;;;;;;4.03;1.00;;;;;;;;;;5090607;28;20082;-77
2023/03/14 13:51:31;;;;;;;1.25;0.90;;;;;;;;;;5088386;28;20044;-76
2023/03/14 13:54:05;;;;;;;0.85;0.80;;;;;;;;;;5088375;28;20051;-79
2023/03/14 13:56:36;;;;;;;1.67;0.80;;;;;;;;;;5088497;28;20059;-76
2023/03/14 13:59:29;;;;;;;1.23;0.93;;;;;;;;;;5091307;28;20044;-76
2023/03/14 14:02:04;;;;;;;2.22;0.93;;;;;;;;;;5089852;28;20044;-77
2023/03/14 14:04:37;;;;;;;1.92;0.98;;;;;;;;;;5088791;28;20047;-75
2023/03/14 14:07:18;;;;;;;3.30;1.00;;;;;;;;;;5088555;28;20036;-78
2023/03/14 14:09:52;;;;;;;0.90;0.80;;;;;;;;;;5088308;28;20044;-77
2023/03/14 14:12:43;;;;;;;3.47;0.98;;;;;;;;;;5086823;28;20054;-76
2023/03/14 14:15:42;;;;;;;2.70;0.93;;;;;;;;;;5086697;28;20052;-76
2023/03/14 14:18:17;;;;;;;0.73;0.60;;;;;;;;;;5084373;28;20396;-76
2023/03/14 14:20:48;;;;;;;1.90;0.82;;;;;;;;;;5087882;28;20044;-76
2023/03/14 14:23:29;;;;;;;1.00;0.68;;;;;;;;;;5088673;28;20051;-77
2023/03/14 14:26:00;;;;;;;2.20;0.52;;;;;;;;;;5086761;28;20059;-74
2023/03/14 14:28:36;;;;;;;3.30;1.00;;;;;;;;;;5087570;28;20048;-75
2023/03/14 14:31:15;;;;;;;0.93;0.77;;;;;;;;;;5087593;28;20044;-73
2023/03/14 14:34:04;;;;;;;0.65;0.60;;;;;;;;;;5087470;28;20056;-74
2023/03/14 14:36:43;;;;;;;1.95;0.63;;;;;;;;;;5086613;28;20059;-77
2023/03/14 14:39:24;;;;;;;2.17;0.85;;;;;;;;;;5091521;28;20527;-74
2023/03/14 14:41:54;;;;;;;2.22;0.68;;;;;;;;;;5087973;28;20040;-76
2023/03/14 14:44:34;;;;;;;0.43;0.43;;;;;;;;;;5087119;28;20418;-78
2023/03/14 14:47:04;;;;;;;2.83;0.73;;;;;;;;;;5087288;28;20052;-74
2023/03/14 14:49:35;;;;;;;0.73;0.43;;;;;;;;;;5086999;28;20391;-78
2023/03/14 14:52:35;;;;;;;3.33;0.60;;;;;;;;;;5087792;28;20065;-74
2023/03/14 14:55:20;;;;;;;1.50;0.50;;;;;;;;;;5087418;28;20067;-75
2023/03/14 14:57:52;;;;;;;2.33;0.47;;;;;;;;;;5087029;28;20052;-79
2023/03/14 15:00:26;;;;;;;5.60;0.70;;;;;;;;;;5087336;28;20044;-77
2023/03/14 15:03:00;;;;;;;5.32;0.80;;;;;;;;;;5087272;28;20044;-76
2023/03/14 15:05:35;;;;;;;0.80;0.50;;;;;;;;;;5087577;28;20511;-77
2023/03/14 15:08:12;;;;;;;1.55;0.57;;;;;;;;;;5087381;28;20063;-77
2023/03/14 15:10:44;;;;;;;1.50;0.43;;;;;;;;;;5087242;28;20765;-76
2023/03/14 15:13:14;;;;;;;0.80;0.43;;;;;;;;;;5088612;28;20426;-77
2023/03/14 15:15:46;;;;;;;4.20;0.70;;;;;;;;;;5088043;28;20044;-77
2023/03/14 15:18:18;;;;;;;3.00;0.30;;;;;;;;;;5086821;28;20526;-77
2023/03/14 15:20:50;;;;;;;2.10;0.52;;;;;;;;;;5089729;28;20055;-79
2023/03/14 15:23:22;;;;;;;1.65;0.40;;;;;;;;;;5089481;28;20055;-76
2023/03/14 15:25:53;;;;;;;1.17;0.70;;;;;;;;;;5092778;28;20051;-78
2023/03/14 15:28:27;;;;;;;1.92;0.60;;;;;;;;;;5090097;28;20059;-76
2023/03/14 15:30:59;;;;;;;1.08;0.50;;;;;;;;;;5088398;28;20055;-76
2023/03/14 15:33:30;;;;;;;1.92;0.50;;;;;;;;;;5086020;28;20056;-78
2023/03/14 15:36:01;;;;;;;2.13;0.50;;;;;;;;;;5086354;28;20044;-79
2023/03/14 15:38:31;;;;;;;0.65;0.40;;;;;;;;;;5087018;28;20056;-77
2023/03/14 15:41:01;;;;;;;0.70;0.40;;;;;;;;;;5089057;28;20474;-76